Terminal Aerodrome Forecast
Issued by NWS

Home | Current Version | Previous Version | Text Only | Print | Product List | Glossary On
Versions: 1 2 3 4 5 6 7 8 9 10 11 12 13
000
FTUS46 KSEW 252300
TAFOLM
TAF
KOLM 252331Z 2600/2624 VRB07KT P6SM -SHRA SCT040 BKN060
     FM260200 VRB03KT P6SM FEW050 SCT150
     FM261000 00000KT 4SM BR SCT002 BKN150
     FM261300 20003KT P6SM BKN150
     FM262200 18007KT P6SM BKN040 BKN150=

USA.gov is the U.S. government's official web portal to all federal, state and local government web resources and services.